Aérodrome :
LOGIN :

S'inscrire | Disclaimer

   EN    FR    IT 

 










Légende :    VFR   VFR Marginal   IFR   IFR Intensif   IFR Très Intensif
Visi : 
Plafond : 
>= 8 km
>= 3000ft
5 à 8 km
1000 à 3000 ft
1500m à 5 km
500 à 1000 ft
800 à 1500m
200 à 500 ft
< 800m
< 200 ft
Symboles :   Orages  Brouillard  Fortes neiges  Fortes précipitations  Vent > 20 kt
SIGMETs :   Divers  Orages  Givrage  Turbulence  Onde Orograph.  Cendres Volcan.






- Altitude de l'aérodrome : 247 ft
- Code IATA : BLL


EKBI - Billund

DERNIER METAR :
  • 161220Z AUTO 12008KT 090V150 2900 -RA BR OVC004/// 17/17 Q1009 REDZ

METARs EXPIRÉS :
  • 161150Z AUTO 12007KT 4500 -DZ OVC005/// 17/16 Q1009
  • 161120Z AUTO 13009KT 090V160 8000 -DZ OVC008/// 17/16 Q1009
  • 161050Z AUTO 12010KT 9999 OVC007/// 17/16 Q1008
  • 161020Z AUTO 10009KT 080V140 9999 BKN009/// OVC024/// 17/16 Q1008 RERA
  • 160950Z AUTO 08008KT 9999 -RA BKN008/// 16/15 Q1008 RERA
  • 160920Z AUTO 13004KT 080V200 1700 +RA SCT010/// BKN027/// OVC047/// 16/15 Q1009
  • 160850Z AUTO 09010KT 9999 -RA OVC060/// 16/15 Q1008
  • 160750Z 09012KT 9999 -SHRA SCT068CB BKN070 17/14 Q1009

TAF TAF EKBI
Valide du 16 à 12h jusqu'au 17 à 12h UTC


161122Z 1612/1712 11012KT 7000 -RA BKN006
TEMPO 1612/1615 3000 RA SCT004 BKN030CB
BECMG 1615/1617 21008KT BKN020
TEMPO 1621/1624 4000 BR
TEMPO 1700/1707 3000 SHRA BR BKN008 SCT020CB
TEMPO 1707/1712 BKN012 SCT020CB



MET'MAP, la Météo Aéronautique d'un coup d'oeil ! - Copyright ORBIFLY Décembre 2007 - Disclaimer

ORBIFLY MET'MAP TEAM :

Programmation & Développement : Alexandra Zaïnal
Sur une idée originale de : Baudouin d'Aumeries
Soutien technique & logistique : Manuel Goepfert
Assistance : Marc-Olivier Méhu




SOURCES & CREDITS :

   NOAA